Map

Track Data

SID SEASON NUMBER BASIN SUBBASIN NAME ISO_TIME NATURE LAT LON WMO_WIND WMO_PRES WMO_AGENCY TRACK_TYPE DIST2LAND LANDFALL IFLAG USA_AGENCY USA_ATCF_ID USA_LAT USA_LON USA_RECORD USA_STATUS USA_WIND USA_PRES USA_SSHS USA_R34_NE USA_R34_SE USA_R34_SW USA_R34_NW USA_R50_NE USA_R50_SE USA_R50_SW USA_R50_NW USA_R64_NE USA_R64_SE USA_R64_SW USA_R64_NW USA_POCI USA_ROCI USA_RMW USA_EYE TOKYO_LAT TOKYO_LON TOKYO_GRADE TOKYO_WIND TOKYO_PRES TOKYO_R50_DIR TOKYO_R50_LONG TOKYO_R50_SHORT TOKYO_R30_DIR TOKYO_R30_LONG TOKYO_R30_SHORT TOKYO_LAND CMA_LAT CMA_LON CMA_CAT CMA_WIND CMA_PRES HKO_LAT HKO_LON HKO_CAT HKO_WIND HKO_PRES NEWDELHI_LAT NEWDELHI_LON NEWDELHI_GRADE NEWDELHI_WIND NEWDELHI_PRES NEWDELHI_CI NEWDELHI_DP NEWDELHI_POCI REUNION_LAT REUNION_LON REUNION_TYPE REUNION_WIND REUNION_PRES REUNION_TNUM REUNION_CI REUNION_RMW REUNION_R34_NE REUNION_R34_SE REUNION_R34_SW REUNION_R34_NW REUNION_R50_NE REUNION_R50_SE REUNION_R50_SW REUNION_R50_NW REUNION_R64_NE REUNION_R64_SE REUNION_R64_SW REUNION_R64_NW BOM_LAT BOM_LON BOM_TYPE BOM_WIND BOM_PRES BOM_TNUM BOM_CI BOM_RMW BOM_R34_NE BOM_R34_SE BOM_R34_SW BOM_R34_NW BOM_R50_NE BOM_R50_SE BOM_R50_SW BOM_R50_NW BOM_R64_NE BOM_R64_SE BOM_R64_SW BOM_R64_NW BOM_ROCI BOM_POCI BOM_EYE BOM_POS_METHOD BOM_PRES_METHOD NADI_LAT NADI_LON NADI_CAT NADI_WIND NADI_PRES WELLINGTON_LAT WELLINGTON_LON WELLINGTON_WIND WELLINGTON_PRES DS824_LAT DS824_LON DS824_STAGE DS824_WIND DS824_PRES TD9636_LAT TD9636_LON TD9636_STAGE TD9636_WIND TD9636_PRES TD9635_LAT TD9635_LON TD9635_WIND TD9635_PRES TD9635_ROCI NEUMANN_LAT NEUMANN_LON NEUMANN_CLASS NEUMANN_WIND NEUMANN_PRES MLC_LAT MLC_LON MLC_CLASS MLC_WIND MLC_PRES USA_GUST BOM_GUST BOM_GUST_PER REUNION_GUST REUNION_GUST_PER USA_SEAHGT USA_SEARAD_NE USA_SEARAD_SE USA_SEARAD_SW USA_SEARAD_NW STORM_SPEED STORM_DIR
1886351N09129 1886 49 WP MM NOT_NAMED 1886-12-16 16:00:00 NR 9.10000 128.500 main 244 200 __________O___ -1 9.10000 128.500 7 11 270
1886351N09129 1886 49 WP MM NOT_NAMED 1886-12-16 18:00:00 NR 9.10163 128.145 main 200 146 __________P___ -1 9.10163 128.145 7 10 270
1886351N09129 1886 49 WP MM NOT_NAMED 1886-12-16 21:00:00 NR 9.10312 127.621 main 146 94 __________P___ -1 9.10312 127.621 7 10 270
1886351N09129 1886 49 WP MM NOT_NAMED 1886-12-17 00:00:00 NR 9.10308 127.117 main 94 43 __________P___ -1 9.10308 127.117 7 10 270
1886351N09129 1886 49 WP MM NOT_NAMED 1886-12-17 03:00:00 NR 9.10113 126.647 main 43 32 __________P___ -1 9.10113 126.647 7 9 270
1886351N09129 1886 49 WP MM NOT_NAMED 1886-12-17 04:00:00 NR 9.10000 126.500 main 32 0 __________O___ -1 9.10000 126.500 7 8 269
1886351N09129 1886 49 WP MM NOT_NAMED 1886-12-17 06:00:00 NR 9.09714 126.221 main 0 0 __________P___ -1 9.09714 126.221 7 8 269
1886351N09129 1886 49 WP MM NOT_NAMED 1886-12-17 09:00:00 NR 9.09298 125.835 main 0 0 __________P___ -1 9.09298 125.835 7 7 270
1886351N09129 1886 49 WP MM NOT_NAMED 1886-12-17 12:00:00 NR 9.09176 125.473 main 0 0 __________P___ -1 9.09176 125.473 7 7 270
1886351N09129 1886 49 WP MM NOT_NAMED 1886-12-17 15:00:00 NR 9.09655 125.119 main 15 15 __________P___ -1 9.09655 125.119 7 7 271
1886351N09129 1886 49 WP MM NOT_NAMED 1886-12-17 16:00:00 NR 9.10000 125.000 main 22 22 __________O___ -1 9.10000 125.000 7 7 271
1886351N09129 1886 49 WP MM NOT_NAMED 1886-12-17 18:00:00 NR 9.10285 124.768 main 22 24 __________P___ -1 9.10285 124.768 7 7 271
1886351N09129 1886 49 WP MM NOT_NAMED 1886-12-17 21:00:00 NR 9.11336 124.421 main 49 49 __________P___ -1 9.11336 124.421 7 7 273
1886351N09129 1886 49 WP MM NOT_NAMED 1886-12-18 00:00:00 NR 9.13704 124.055 main 56 34 __________P___ -1 9.13704 124.055 7 8 275
1886351N09129 1886 49 WP MM NOT_NAMED 1886-12-18 03:00:00 NR 9.18020 123.648 main 34 24 __________P___ -1 9.18020 123.648 7 8 277
1886351N09129 1886 49 WP MM NOT_NAMED 1886-12-18 04:00:00 NR 9.20000 123.500 main 24 0 __________O___ -1 9.20000 123.500 7 10 278
1886351N09129 1886 49 WP MM NOT_NAMED 1886-12-18 06:00:00 NR 9.24703 123.168 main 0 0 __________P___ -1 9.24703 123.168 7 10 279
1886351N09129 1886 49 WP MM NOT_NAMED 1886-12-18 09:00:00 NR 9.33638 122.626 main 15 15 __________P___ -1 9.33638 122.626 7 11 280
1886351N09129 1886 49 WP MM NOT_NAMED 1886-12-18 12:00:00 NR 9.44265 122.056 main 49 55 __________P___ -1 9.44265 122.056 7 11 281
1886351N09129 1886 49 WP MM NOT_NAMED 1886-12-18 15:00:00 NR 9.55966 121.485 main 99 99 __________P___ -1 9.55966 121.485 7 11 282
1886351N09129 1886 49 WP MM NOT_NAMED 1886-12-18 16:00:00 NR 9.60000 121.300 main 111 111 __________O___ -1 9.60000 121.300 7 11 282
1886351N09129 1886 49 WP MM NOT_NAMED 1886-12-18 18:00:00 NR 9.67479 120.953 main 125 109 __________P___ -1 9.67479 120.953 7 10 283
1886351N09129 1886 49 WP MM NOT_NAMED 1886-12-18 21:00:00 NR 9.79339 120.444 main 109 64 __________P___ -1 9.79339 120.444 7 10 284
1886351N09129 1886 49 WP MM NOT_NAMED 1886-12-19 00:00:00 NR 9.91969 119.948 main 64 31 __________P___ -1 9.91969 119.948 7 10 285
1886351N09129 1886 49 WP MM NOT_NAMED 1886-12-19 03:00:00 NR 10.0537 119.461 main 31 10 __________P___ -1 10.0537 119.461 7 10 286
1886351N09129 1886 49 WP MM NOT_NAMED 1886-12-19 04:00:00 NR 10.1000 119.300 main 10 0 __________O___ -1 10.1000 119.300 7 10 287
1886351N09129 1886 49 WP MM NOT_NAMED 1886-12-19 06:00:00 NR 10.1968 118.970 main 0 0 __________P___ -1 10.1968 118.970 7 10 287
1886351N09129 1886 49 WP MM NOT_NAMED 1886-12-19 09:00:00 NR 10.3485 118.481 main 39 46 __________P___ -1 10.3485 118.481 7 10 288
1886351N09129 1886 49 WP MM NOT_NAMED 1886-12-19 12:00:00 NR 10.5023 118.004 main 98 98 __________P___ -1 10.5023 118.004 7 10 288
1886351N09129 1886 49 WP MM NOT_NAMED 1886-12-19 15:00:00 NR 10.6521 117.547 main 156 156 __________P___ -1 10.6521 117.547 7 9 288
1886351N09129 1886 49 WP MM NOT_NAMED 1886-12-19 16:00:00 NR 10.7000 117.400 main 164 164 __________O___ -1 10.7000 117.400 7 9 286
1886351N09129 1886 49 WP MM NOT_NAMED 1886-12-19 18:00:00 NR 10.7730 117.126 main 194 194 __________P___ -1 10.7730 117.126 7 8 285
1886351N09129 1886 49 WP MM NOT_NAMED 1886-12-19 21:00:00 NR 10.8760 116.735 main 225 225 __________P___ -1 10.8760 116.735 7 8 286
1886351N09129 1886 49 WP MM NOT_NAMED 1886-12-20 00:00:00 NR 10.9908 116.348 main 260 260 __________P___ -1 10.9908 116.348 7 8 289
1886351N09129 1886 49 WP MM NOT_NAMED 1886-12-20 03:00:00 NR 11.1393 115.943 main 297 297 __________P___ -1 11.1393 115.943 7 9 291
1886351N09129 1886 49 WP MM NOT_NAMED 1886-12-20 04:00:00 NR 11.2000 115.800 main 313 313 __________O___ -1 11.2000 115.800 7 10 295
1886351N09129 1886 49 WP MM NOT_NAMED 1886-12-20 06:00:00 NR 11.3492 115.477 main 344 360 __________P___ -1 11.3492 115.477 7 11 297
1886351N09129 1886 49 WP MM NOT_NAMED 1886-12-20 09:00:00 NR 11.6108 114.966 main 407 414 __________P___ -1 11.6108 114.966 7 12 299
1886351N09129 1886 49 WP MM NOT_NAMED 1886-12-20 12:00:00 NR 11.9010 114.449 main 477 477 __________P___ -1 11.9010 114.449 7 12 301
1886351N09129 1886 49 WP MM NOT_NAMED 1886-12-20 15:00:00 NR 12.2010 113.955 main 491 468 __________P___ -1 12.2010 113.955 7 11 302
1886351N09129 1886 49 WP MM NOT_NAMED 1886-12-20 16:00:00 NR 12.3000 113.800 main 468 435 __________O___ -1 12.3000 113.800 7 10 294
1886351N09129 1886 49 WP MM NOT_NAMED 1886-12-20 18:00:00 NR 12.4126 113.479 main 435 380 __________P___ -1 12.4126 113.479 7 10 290
1886351N09129 1886 49 WP MM NOT_NAMED 1886-12-20 21:00:00 NR 12.5800 113.029 main 380 336 __________P___ -1 12.5800 113.029 7 9 297
1886351N09129 1886 49 WP MM NOT_NAMED 1886-12-21 00:00:00 NR 12.8203 112.647 main 336 315 __________P___ -1 12.8203 112.647 7 9 315
1886351N09129 1886 49 WP MM NOT_NAMED 1886-12-21 03:00:00 NR 13.2179 112.365 main 316 306 __________P___ -1 13.2179 112.365 7 10 330
1886351N09129 1886 49 WP MM NOT_NAMED 1886-12-21 04:00:00 NR 13.4000 112.300 main 308 302 __________O___ -1 13.4000 112.300 7 15 343
1886351N09129 1886 49 WP MM NOT_NAMED 1886-12-21 06:00:00 NR 13.9280 112.143 main 302 296 __________P___ -1 13.9280 112.143 7 18 349
1886351N09129 1886 49 WP MM NOT_NAMED 1886-12-21 09:00:00 NR 14.8918 112.006 main 311 311 __________P___ -1 14.8918 112.006 7 20 357
1886351N09129 1886 49 WP MM NOT_NAMED 1886-12-21 12:00:00 NR 15.9346 112.030 main 338 277 __________P___ -1 15.9346 112.030 7 21 7
1886351N09129 1886 49 WP MM NOT_NAMED 1886-12-21 15:00:00 NR 16.9130 112.266 main 284 269 __________P___ -1 16.9130 112.266 7 20 16
1886351N09129 1886 49 WP MM NOT_NAMED 1886-12-21 16:00:00 NR 17.2000 112.400 main 269 263 __________O___ -1 17.2000 112.400 7 18 34
1886351N09129 1886 49 WP MM NOT_NAMED 1886-12-21 18:00:00 NR 17.6475 112.776 main 277 272 __________P___ -1 17.6475 112.776 7 18 47
1886351N09129 1886 49 WP MM NOT_NAMED 1886-12-21 21:00:00 NR 18.1988 113.544 main 306 309 __________P___ -1 18.1988 113.544 7 19 58
1886351N09129 1886 49 WP MM NOT_NAMED 1886-12-22 00:00:00 NR 18.6357 114.456 main 384 381 __________P___ -1 18.6357 114.456 7 19 66
1886351N09129 1886 49 WP MM NOT_NAMED 1886-12-22 03:00:00 NR 18.9926 115.399 main 386 382 __________P___ -1 18.9926 115.399 7 19 68
1886351N09129 1886 49 WP MM NOT_NAMED 1886-12-22 04:00:00 NR 19.1000 115.700 main 386 375 __________O___ -1 19.1000 115.700 7 17 66
1886351N09129 1886 49 WP MM NOT_NAMED 1886-12-22 06:00:00 NR 19.3328 116.197 main 382 358 __________P___ -1 19.3328 116.197 7 15 65
1886351N09129 1886 49 WP MM NOT_NAMED 1886-12-22 09:00:00 NR 19.6326 116.916 main 364 351 __________P___ -1 19.6326 116.916 7 15 67
1886351N09129 1886 49 WP MM NOT_NAMED 1886-12-22 12:00:00 NR 19.8902 117.626 main 354 299 __________P___ -1 19.8902 117.626 7 14 70
1886351N09129 1886 49 WP MM NOT_NAMED 1886-12-22 15:00:00 NR 20.1241 118.351 main 299 289 __________P___ -1 20.1241 118.351 7 15 71
1886351N09129 1886 49 WP MM NOT_NAMED 1886-12-22 16:00:00 NR 20.2000 118.600 main 289 235 __________O___ -1 20.2000 118.600 7 15 72
1886351N09129 1886 49 WP MM NOT_NAMED 1886-12-22 18:00:00 NR 20.3517 119.115 main 235 167 __________P___ -1 20.3517 119.115 7 16 73
1886351N09129 1886 49 WP MM NOT_NAMED 1886-12-22 21:00:00 NR 20.5789 119.921 main 167 123 __________P___ -1 20.5789 119.921 7 16 74
1886351N09129 1886 49 WP MM NOT_NAMED 1886-12-23 00:00:00 NR 20.8044 120.758 main 123 108 __________P___ -1 20.8044 120.758 7 16 74
1886351N09129 1886 49 WP MM NOT_NAMED 1886-12-23 03:00:00 NR 21.0268 121.613 main 123 121 __________P___ -1 21.0268 121.613 7 17 75
1886351N09129 1886 49 WP MM NOT_NAMED 1886-12-23 04:00:00 NR 21.1000 121.900 main 136 __________O___ -1 21.1000 121.900 2 17 75

Digital Typhoon Data and Search

About IBTrACS Database

This database is a web-friendly format of International Best Track Archive for Climate Stewardship (IBTrACS), a global best track data archive curated by NOAA dating back to 1842.

Updated: 2021-11-26